Terminal Aerodrome Forecast
Issued by NWS

Home | Current Version | Previous Version | Text Only | Print | Product List | Glossary On
Versions: 1 2 3 4 5 6 7 8 9 10 11 12
000
FTUS42 TJSJ 260500 RRA
TAFISX
TAF
TISX 260543Z 2606/2706 07008KT P6SM VCSH FEW025 SCT030
      TEMPO 2606/2609 VRB12G21KT SHRA BKN025 OVC035
     FM261300 09014G21KT P6SM SCT025 SCT035
     FM262300 06007KT P6SM FEW025
      AMD NOT SKED=

USA.gov is the U.S. government's official web portal to all federal, state and local government web resources and services.